createdAt,value
2019-03-08T00:00:42.687Z,99425.36
2019-03-08T00:03:12.718Z,99424.20
2019-03-08T00:05:40.803Z,99429.75
2019-03-08T00:08:08.839Z,99421.13
2019-03-08T00:10:38.041Z,99426.56
2019-03-08T00:13:06.191Z,99432.12
2019-03-08T00:15:34.674Z,99431.61
2019-03-08T00:18:02.932Z,99428.87
2019-03-08T00:20:31.004Z,99428.73
2019-03-08T00:22:59.101Z,99437.30
2019-03-08T00:25:27.205Z,99441.93
2019-03-08T00:27:55.364Z,99445.36
2019-03-08T00:30:24.875Z,99449.80
2019-03-08T00:32:53.217Z,99461.59
2019-03-08T00:35:22.551Z,99462.91
2019-03-08T00:37:50.593Z,99463.72
2019-03-08T00:40:18.749Z,99463.52
2019-03-08T00:42:46.814Z,99469.27
2019-03-08T00:45:14.931Z,99469.47
2019-03-08T00:47:43.685Z,99475.21
2019-03-08T00:50:12.309Z,99480.81
2019-03-08T00:52:40.697Z,99483.63
2019-03-08T00:55:08.978Z,99475.00
2019-03-08T00:57:37.062Z,99486.18
2019-03-08T01:00:11.220Z,99483.10
2019-03-08T01:02:41.071Z,99490.84
2019-03-08T01:05:10.089Z,99485.99
2019-03-08T01:07:38.475Z,99486.84
2019-03-08T01:10:09.927Z,99490.52
2019-03-08T01:12:38.052Z,99493.02
2019-03-08T01:15:07.269Z,99490.44
2019-03-08T01:17:35.340Z,99491.00
2019-03-08T01:20:03.885Z,99500.68
2019-03-08T01:22:31.964Z,99498.91
2019-03-08T01:25:01.410Z,99500.41
2019-03-08T01:27:29.565Z,99501.09
2019-03-08T01:29:57.869Z,99496.08
2019-03-08T01:32:25.959Z,99500.23
2019-03-08T01:34:54.144Z,99498.44
2019-03-08T01:37:22.333Z,99509.73
2019-03-08T01:39:50.499Z,99501.47
2019-03-08T01:42:18.560Z,99502.03
2019-03-08T01:44:46.833Z,99509.55
2019-03-08T01:47:14.973Z,99496.70
2019-03-08T01:49:43.022Z,99505.41
2019-03-08T01:52:12.181Z,99505.22
2019-03-08T01:54:40.254Z,99513.64
2019-03-08T01:57:08.346Z,99516.09
2019-03-08T01:59:37.630Z,99509.61
2019-03-08T02:02:05.719Z,99532.21
2019-03-08T02:04:33.742Z,99527.16
2019-03-08T02:07:02.158Z,99530.30
2019-03-08T02:09:30.207Z,99521.83
2019-03-08T02:11:58.658Z,99532.48
2019-03-08T02:14:27.016Z,99529.08
2019-03-08T02:16:55.063Z,99532.69
2019-03-08T02:19:23.154Z,99527.48
2019-03-08T02:21:52.998Z,99534.58
2019-03-08T02:24:21.050Z,99530.00
2019-03-08T02:26:49.249Z,99534.66
2019-03-08T02:29:17.989Z,99529.45
2019-03-08T02:31:46.058Z,99526.20
2019-03-08T02:34:13.976Z,99527.90
2019-03-08T02:36:42.473Z,99524.98
2019-03-08T02:39:11.870Z,99519.28
2019-03-08T02:41:41.952Z,99515.22
2019-03-08T02:44:10.396Z,99527.31
2019-03-08T02:46:40.762Z,99533.72
2019-03-08T02:49:08.864Z,99527.69
2019-03-08T02:51:37.662Z,99534.25
2019-03-08T02:54:07.023Z,99530.02
2019-03-08T02:56:35.091Z,99541.78
2019-03-08T02:59:03.340Z,99535.73
2019-03-08T03:01:31.446Z,99540.47
2019-03-08T03:03:59.511Z,99539.16
2019-03-08T03:06:27.936Z,99539.66
2019-03-08T03:08:56.083Z,99543.75
2019-03-08T03:11:24.258Z,99538.83
2019-03-08T03:13:54.167Z,99541.95
2019-03-08T03:16:22.802Z,99548.32
2019-03-08T03:18:50.979Z,99550.11
2019-03-08T03:21:19.025Z,99555.16
2019-03-08T03:23:47.121Z,99564.45
2019-03-08T03:26:15.482Z,99576.72
2019-03-08T03:28:44.563Z,99613.63
2019-03-08T03:31:12.641Z,99623.39
2019-03-08T03:33:40.785Z,99622.86
2019-03-08T03:36:09.255Z,99631.83
2019-03-08T03:38:39.074Z,99633.01
2019-03-08T03:41:08.837Z,99626.83
2019-03-08T03:43:37.142Z,99619.80
2019-03-08T03:46:05.491Z,99632.25
2019-03-08T03:48:33.704Z,99631.63
2019-03-08T03:51:01.829Z,99641.78
2019-03-08T03:53:30.060Z,99641.80
2019-03-08T03:55:58.178Z,99644.91
2019-03-08T03:58:26.236Z,99643.66
2019-03-08T04:00:55.076Z,99630.45
2019-03-08T04:03:23.441Z,99637.34
2019-03-08T04:05:51.719Z,99640.36
2019-03-08T04:08:19.884Z,99640.55
2019-03-08T04:10:47.949Z,99642.52
2019-03-08T04:13:16.554Z,99659.86
2019-03-08T04:15:45.812Z,99654.11
2019-03-08T04:18:13.890Z,99673.88
2019-03-08T04:20:42.367Z,99676.67
2019-03-08T04:23:10.439Z,99677.34
2019-03-08T04:25:38.845Z,99685.33
2019-03-08T04:28:07.094Z,99695.92
2019-03-08T04:30:35.392Z,99689.91
2019-03-08T04:33:03.429Z,99692.84
2019-03-08T04:35:31.626Z,99694.32
2019-03-08T04:37:59.683Z,99700.21
2019-03-08T04:40:27.745Z,99705.09
2019-03-08T04:42:56.005Z,99704.13
2019-03-08T04:45:24.370Z,99700.20
2019-03-08T04:47:52.535Z,99706.59
2019-03-08T04:50:33.318Z,99704.64
2019-03-08T04:53:01.428Z,99704.47
2019-03-08T04:55:29.790Z,99708.70
2019-03-08T04:57:57.924Z,99713.61
2019-03-08T05:00:26.158Z,99713.27
2019-03-08T05:02:54.416Z,99720.15
2019-03-08T05:05:22.517Z,99721.10
2019-03-08T05:07:50.669Z,99724.06
2019-03-08T05:10:18.790Z,99732.36
2019-03-08T05:12:46.995Z,99730.73
2019-03-08T05:15:16.170Z,99738.08
2019-03-08T05:17:45.228Z,99737.61
2019-03-08T05:20:13.263Z,99742.02
2019-03-08T05:22:42.929Z,99734.19
2019-03-08T05:25:11.251Z,99741.53
2019-03-08T05:27:39.610Z,99747.56
2019-03-08T05:30:08.616Z,99742.34
2019-03-08T05:32:36.737Z,99751.64
2019-03-08T05:35:05.724Z,99750.19
2019-03-08T05:37:33.788Z,99754.75
2019-03-08T05:40:02.294Z,99761.28
2019-03-08T05:42:31.202Z,99764.71
2019-03-08T05:44:59.359Z,99757.67
2019-03-08T05:47:27.556Z,99762.91
2019-03-08T05:49:55.627Z,99759.16
2019-03-08T05:52:23.695Z,99760.97
2019-03-08T05:54:52.011Z,99765.37
2019-03-08T05:57:20.316Z,99769.95
2019-03-08T05:59:48.360Z,99777.28
2019-03-08T06:02:16.432Z,99782.49
2019-03-08T06:04:44.482Z,99784.95
2019-03-08T06:07:12.966Z,99784.30
2019-03-08T06:09:42.381Z,99789.03
2019-03-08T06:12:11.040Z,99790.83
2019-03-08T06:14:39.458Z,99793.58
2019-03-08T06:17:07.551Z,99793.13
2019-03-08T06:19:36.783Z,99794.75
2019-03-08T06:22:04.853Z,99791.65
2019-03-08T06:24:32.883Z,99790.34
2019-03-08T06:27:01.092Z,99794.41
2019-03-08T06:29:29.521Z,99803.87
2019-03-08T06:31:57.596Z,99801.45
2019-03-08T06:34:25.667Z,99804.70
2019-03-08T06:36:53.791Z,99808.13
2019-03-08T06:39:21.856Z,99807.32
2019-03-08T06:41:50.306Z,99816.61
2019-03-08T06:44:18.739Z,99820.55
2019-03-08T06:46:47.426Z,99825.11
2019-03-08T06:49:15.482Z,99822.69
2019-03-08T06:51:43.540Z,99836.72
2019-03-08T06:54:12.005Z,99835.91
2019-03-08T06:56:40.050Z,99841.78
2019-03-08T06:59:16.251Z,99842.94
2019-03-08T07:01:44.403Z,99845.20
2019-03-08T07:04:12.762Z,99853.88
2019-03-08T07:06:40.827Z,99862.19
2019-03-08T07:09:09.848Z,99867.78
2019-03-08T07:11:38.097Z,99872.34
2019-03-08T07:14:06.579Z,99877.27
2019-03-08T07:16:35.004Z,99885.75
2019-03-08T07:19:03.952Z,99888.38
2019-03-08T07:21:55.890Z,99897.52
2019-03-08T07:24:31.087Z,99898.51
2019-03-08T07:27:17.445Z,99902.11
2019-03-08T07:29:56.590Z,99909.29
2019-03-08T07:32:44.671Z,99916.31
2019-03-08T07:35:51.064Z,99915.33
2019-03-08T07:38:57.229Z,99935.09
2019-03-08T07:41:43.734Z,99933.33
2019-03-08T07:44:38.189Z,99940.02
2019-03-08T07:47:17.918Z,99942.78
2019-03-08T07:49:52.644Z,99953.26
2019-03-08T07:52:38.907Z,99955.89
2019-03-08T07:55:32.681Z,99965.02
2019-03-08T07:58:23.228Z,99972.55
2019-03-08T08:01:19.769Z,99975.17
2019-03-08T08:04:19.850Z,99975.32
2019-03-08T08:07:05.320Z,99983.66
2019-03-08T08:10:00.295Z,99979.91
2019-03-08T08:12:54.244Z,99990.02
2019-03-08T08:15:38.712Z,100002.14
2019-03-08T08:18:27.021Z,100020.11
2019-03-08T08:21:17.735Z,100033.84
2019-03-08T08:24:04.251Z,100028.78
2019-03-08T08:26:51.323Z,100035.17
2019-03-08T08:29:37.791Z,100040.73
2019-03-08T08:32:24.804Z,100044.00
2019-03-08T08:35:08.491Z,100049.72
2019-03-08T08:38:05.374Z,100057.08
2019-03-08T08:40:55.973Z,100053.80
2019-03-08T08:43:42.102Z,100054.95
2019-03-08T08:46:28.393Z,100058.07
2019-03-08T08:49:14.986Z,100064.45
2019-03-08T08:51:49.362Z,100075.39
2019-03-08T08:54:27.235Z,100071.14
2019-03-08T08:57:04.196Z,100079.30
2019-03-08T08:59:51.159Z,100079.27
2019-03-08T09:02:51.208Z,100079.91
2019-03-08T09:05:28.828Z,100070.11
2019-03-08T09:08:16.530Z,100087.92
2019-03-08T09:11:19.435Z,100087.43
2019-03-08T09:14:02.367Z,100098.06
2019-03-08T09:16:39.771Z,100097.39
2019-03-08T09:19:42.755Z,100094.77
2019-03-08T09:22:22.497Z,100089.98
2019-03-08T09:25:11.349Z,100091.89
2019-03-08T09:28:01.914Z,100103.22
2019-03-08T09:30:58.769Z,100099.84
2019-03-08T09:33:52.754Z,100097.62
2019-03-08T09:36:30.671Z,100108.09
2019-03-08T09:39:11.598Z,100111.59
2019-03-08T09:41:59.322Z,100106.46
2019-03-08T09:44:59.067Z,100107.27
2019-03-08T09:47:36.505Z,100118.94
2019-03-08T09:50:27.785Z,100115.63
2019-03-08T09:53:14.435Z,100125.78
2019-03-08T09:55:47.996Z,100131.03
2019-03-08T09:58:27.304Z,100137.22
2019-03-08T10:01:16.864Z,100125.27
2019-03-08T10:04:01.917Z,100131.84
2019-03-08T10:06:58.795Z,100135.61
2019-03-08T10:10:05.391Z,100137.47
2019-03-08T10:12:41.961Z,100135.31
2019-03-08T10:15:28.279Z,100136.13
2019-03-08T10:18:14.731Z,100138.35
2019-03-08T10:21:01.370Z,100129.84
2019-03-08T10:23:49.310Z,100141.55
2019-03-08T10:26:27.052Z,100142.71
2019-03-08T10:29:14.760Z,100146.16
2019-03-08T10:32:05.065Z,100140.18
2019-03-08T10:34:53.901Z,100144.02
2019-03-08T10:37:41.713Z,100144.39
2019-03-08T10:40:34.104Z,100141.80
2019-03-08T10:43:16.231Z,100143.58
2019-03-08T10:46:15.900Z,100139.42
2019-03-08T10:49:06.935Z,100148.09
2019-03-08T10:51:43.628Z,100142.76
2019-03-08T10:54:30.491Z,100152.32
2019-03-08T10:57:15.415Z,100157.31
2019-03-08T11:00:08.934Z,100153.36
2019-03-08T11:03:15.042Z,100159.94
2019-03-08T11:06:17.831Z,100156.84
2019-03-08T11:08:51.320Z,100164.80
2019-03-08T11:11:57.203Z,100157.02
2019-03-08T11:14:43.706Z,100162.15
2019-03-08T11:17:31.136Z,100163.59
2019-03-08T11:20:21.510Z,100162.52
2019-03-08T11:22:59.526Z,100174.73
2019-03-08T11:25:52.976Z,100176.72
2019-03-08T11:28:43.303Z,100177.88
2019-03-08T11:31:42.647Z,100179.53
2019-03-08T11:34:15.748Z,100175.70
2019-03-08T11:37:15.148Z,100167.50
2019-03-08T11:39:48.691Z,100174.34
2019-03-08T11:42:32.744Z,100174.27
2019-03-08T11:45:18.422Z,100174.35
2019-03-08T11:48:05.004Z,100173.23
2019-03-08T11:50:55.785Z,100166.26
2019-03-08T11:53:56.275Z,100174.89
2019-03-08T11:56:56.162Z,100160.25
2019-03-08T11:59:56.820Z,100165.33
2019-03-08T12:02:58.507Z,100176.67
2019-03-08T12:05:43.138Z,100169.85
2019-03-08T12:08:43.728Z,100169.66
2019-03-08T12:11:36.571Z,100179.69
2019-03-08T12:14:22.929Z,100176.86
2019-03-08T12:17:09.957Z,100175.50
2019-03-08T12:19:49.506Z,100174.69
2019-03-08T12:22:47.016Z,100182.20
2019-03-08T12:25:49.617Z,100173.80
2019-03-08T12:28:36.315Z,100188.12
2019-03-08T12:31:22.837Z,100188.17
2019-03-08T12:34:08.346Z,100180.77
2019-03-08T12:36:49.739Z,100179.45
2019-03-08T12:39:33.668Z,100176.08
2019-03-08T12:42:13.805Z,100174.75
2019-03-08T12:44:50.503Z,100185.42
2019-03-08T12:47:41.193Z,100172.50
2019-03-08T12:50:15.152Z,100167.91
2019-03-08T12:53:13.904Z,100169.13
2019-03-08T12:56:05.497Z,100175.87
2019-03-08T12:58:50.173Z,100175.15
2019-03-08T13:01:44.553Z,100170.74
2019-03-08T13:04:50.546Z,100182.09
2019-03-08T13:07:50.257Z,100174.03
2019-03-08T13:10:18.320Z,100168.64
2019-03-08T13:12:48.513Z,100163.31
2019-03-08T13:15:16.801Z,100162.31
2019-03-08T13:17:44.875Z,100158.46
2019-03-08T13:20:16.627Z,100159.10
2019-03-08T13:22:44.795Z,100163.83
2019-03-08T13:25:14.498Z,100160.49
2019-03-08T13:27:42.583Z,100154.91
2019-03-08T13:30:16.419Z,100157.52
2019-03-08T13:32:44.489Z,100156.30
2019-03-08T13:35:13.987Z,100152.15
2019-03-08T13:37:43.164Z,100155.47
2019-03-08T13:40:12.295Z,100161.02
2019-03-08T13:42:42.185Z,100157.02
2019-03-08T13:45:14.225Z,100156.05
2019-03-08T13:47:42.295Z,100152.39
2019-03-08T13:50:11.632Z,100154.63
2019-03-08T13:52:39.797Z,100151.25
2019-03-08T13:55:09.854Z,100162.77
2019-03-08T13:57:39.885Z,100158.34
2019-03-08T14:00:11.420Z,100156.38
2019-03-08T14:02:39.838Z,100153.17
2019-03-08T14:05:08.463Z,100156.43
2019-03-08T14:07:36.836Z,100157.77
2019-03-08T14:10:07.429Z,100163.42
2019-03-08T14:12:35.799Z,100161.95
2019-03-08T14:15:04.756Z,100162.27
2019-03-08T14:17:33.921Z,100154.71
2019-03-08T14:20:01.995Z,100161.21
2019-03-08T14:22:30.728Z,100160.19
2019-03-08T14:24:58.800Z,100161.58
2019-03-08T14:27:26.869Z,100161.72
2019-03-08T14:29:58.814Z,100162.30
2019-03-08T14:32:25.529Z,100167.84
2019-03-08T14:34:55.043Z,100160.45
2019-03-08T14:37:23.161Z,100162.53
2019-03-08T14:39:51.218Z,100155.04
2019-03-08T14:42:40.478Z,100165.77
2019-03-08T14:45:15.863Z,100160.02
2019-03-08T14:47:46.238Z,100161.73
2019-03-08T14:50:14.396Z,100158.84
2019-03-08T14:52:42.457Z,100157.05
2019-03-08T14:55:14.478Z,100158.72
2019-03-08T14:57:42.541Z,100163.72
2019-03-08T15:00:17.925Z,100151.34
2019-03-08T15:02:47.160Z,100143.28
2019-03-08T15:05:19.133Z,100141.15
2019-03-08T15:07:46.001Z,100142.55
2019-03-08T15:10:16.722Z,100145.53
2019-03-08T15:12:49.127Z,100150.72
2019-03-08T15:15:16.900Z,100140.55
2019-03-08T15:17:45.110Z,100145.71
2019-03-08T15:20:15.787Z,100153.80
2019-03-08T15:22:45.158Z,100148.70
2019-03-08T15:25:15.088Z,100139.59
2019-03-08T15:27:43.214Z,100142.27
2019-03-08T15:30:13.434Z,100137.68
2019-03-08T15:32:41.480Z,100133.34
2019-03-08T15:35:10.714Z,100134.59
2019-03-08T15:37:44.095Z,100127.25
2019-03-08T15:40:14.029Z,100132.22
2019-03-08T15:42:42.078Z,100125.60
2019-03-08T15:45:10.846Z,100128.58
2019-03-08T15:47:39.236Z,100125.19
2019-03-08T15:50:11.119Z,100121.73
2019-03-08T15:52:39.207Z,100132.13
2019-03-08T15:55:07.572Z,100134.36
2019-03-08T15:57:36.189Z,100130.98
2019-03-08T16:00:11.135Z,100130.17
2019-03-08T16:02:39.584Z,100129.86
2019-03-08T16:05:08.640Z,100125.08
2019-03-08T16:07:36.733Z,100133.09
2019-03-08T16:10:06.240Z,100133.41
2019-03-08T16:12:34.480Z,100140.70
2019-03-08T16:15:03.522Z,100139.37
2019-03-08T16:17:32.166Z,100143.44
2019-03-08T16:20:02.961Z,100143.14
2019-03-08T16:22:31.791Z,100134.98
2019-03-08T16:24:59.859Z,100137.50
2019-03-08T16:27:28.458Z,100134.46
2019-03-08T16:29:56.869Z,100133.05
2019-03-08T16:32:34.919Z,100138.20
2019-03-08T16:35:03.858Z,100133.98
2019-03-08T16:37:54.364Z,100140.98
2019-03-08T16:40:37.946Z,100144.34
2019-03-08T16:43:33.409Z,100148.14
2019-03-08T16:46:09.945Z,100143.82
2019-03-08T16:48:51.767Z,100147.65
2019-03-08T16:51:38.095Z,100155.33
2019-03-08T16:54:14.079Z,100154.78
2019-03-08T16:57:04.366Z,100161.64
2019-03-08T16:59:48.007Z,100166.81
2019-03-08T17:02:26.769Z,100172.56
2019-03-08T17:05:29.154Z,100171.50
2019-03-08T17:08:17.202Z,100172.07
2019-03-08T17:11:07.488Z,100174.35
2019-03-08T17:14:07.415Z,100175.63
2019-03-08T17:17:13.241Z,100175.91
2019-03-08T17:20:04.561Z,100184.27
2019-03-08T17:22:48.090Z,100187.48
2019-03-08T17:25:29.033Z,100196.55
2019-03-08T17:28:17.114Z,100202.45
2019-03-08T17:31:11.130Z,100201.07
2019-03-08T17:34:01.984Z,100204.45
2019-03-08T17:36:42.773Z,100217.05
2019-03-08T17:39:31.301Z,100211.20
2019-03-08T17:42:15.684Z,100205.36
2019-03-08T17:45:02.008Z,100211.18
2019-03-08T17:48:06.669Z,100215.36
2019-03-08T17:51:03.358Z,100216.80
2019-03-08T17:53:46.537Z,100227.94
2019-03-08T17:56:40.190Z,100224.41
2019-03-08T17:59:33.433Z,100226.14
2019-03-08T18:02:21.154Z,100225.93
2019-03-08T18:04:56.128Z,100232.45
2019-03-08T18:07:36.260Z,100236.16
2019-03-08T18:10:14.327Z,100233.42
2019-03-08T18:13:03.024Z,100249.92
2019-03-08T18:15:39.601Z,100245.06
2019-03-08T18:18:27.503Z,100254.48
2019-03-08T18:21:07.331Z,100252.25
2019-03-08T18:24:01.302Z,100251.27
2019-03-08T18:26:40.200Z,100255.09
2019-03-08T18:29:45.736Z,100258.72
2019-03-08T18:32:45.461Z,100255.09
2019-03-08T18:35:27.872Z,100258.23
2019-03-08T18:38:24.758Z,100250.72
2019-03-08T18:41:21.261Z,100248.42
2019-03-08T18:44:14.650Z,100262.12
2019-03-08T18:47:20.625Z,100267.92
2019-03-08T18:50:11.241Z,100270.00
2019-03-08T18:52:50.257Z,100268.30
2019-03-08T18:55:36.678Z,100267.86
2019-03-08T18:58:15.441Z,100265.43
2019-03-08T19:00:52.473Z,100275.63
2019-03-08T19:03:40.163Z,100274.50
2019-03-08T19:06:33.761Z,100263.69
2019-03-08T19:09:16.371Z,100264.52
2019-03-08T19:12:10.359Z,100274.55
2019-03-08T19:14:56.951Z,100281.30
2019-03-08T19:17:51.568Z,100293.62
2019-03-08T19:20:34.956Z,100288.86
2019-03-08T19:23:25.234Z,100299.55
2019-03-08T19:26:19.245Z,100293.98
2019-03-08T19:29:16.471Z,100294.02
2019-03-08T19:31:57.357Z,100296.64
2019-03-08T19:34:44.316Z,100289.12
2019-03-08T19:37:37.729Z,100294.37
2019-03-08T19:40:15.338Z,100307.52
2019-03-08T19:43:16.391Z,100302.61
2019-03-08T19:46:15.945Z,100304.42
2019-03-08T19:48:56.744Z,100298.17
2019-03-08T19:51:47.054Z,100302.81
2019-03-08T19:54:34.772Z,100306.07
2019-03-08T19:57:22.445Z,100313.79
2019-03-08T20:00:05.966Z,100313.46
2019-03-08T20:02:45.150Z,100319.38
2019-03-08T20:05:35.493Z,100326.92
2019-03-08T20:08:27.130Z,100330.04
2019-03-08T20:11:15.007Z,100333.30
2019-03-08T20:14:02.844Z,100337.23
2019-03-08T20:16:40.736Z,100331.66
2019-03-08T20:19:28.674Z,100339.85
2019-03-08T20:22:16.670Z,100335.28
2019-03-08T20:25:22.389Z,100333.80
2019-03-08T20:28:09.279Z,100328.23
2019-03-08T20:30:57.008Z,100329.55
2019-03-08T20:33:45.296Z,100329.69
2019-03-08T20:36:27.064Z,100329.36
2019-03-08T20:39:06.721Z,100326.91
2019-03-08T20:41:44.725Z,100319.05
2019-03-08T20:44:17.525Z,100324.78
2019-03-08T20:47:08.105Z,100318.40
2019-03-08T20:49:38.741Z,100316.41
2019-03-08T20:52:07.099Z,100316.75
2019-03-08T20:54:35.531Z,100318.56
2019-03-08T20:57:03.878Z,100320.05
2019-03-08T20:59:32.226Z,100324.47
2019-03-08T21:02:00.359Z,100317.58
2019-03-08T21:04:28.640Z,100321.19
2019-03-08T21:06:56.993Z,100314.30
2019-03-08T21:09:25.321Z,100318.73
2019-03-08T21:11:53.489Z,100319.39
2019-03-08T21:14:21.625Z,100322.33
2019-03-08T21:16:50.072Z,100324.30
2019-03-08T21:19:19.171Z,100320.05
2019-03-08T21:21:47.329Z,100324.30
2019-03-08T21:24:15.837Z,100325.94
2019-03-08T21:26:44.905Z,100329.38
2019-03-08T21:29:13.299Z,100324.45
2019-03-08T21:31:41.865Z,100320.70
2019-03-08T21:34:10.273Z,100318.58
2019-03-08T21:36:38.635Z,100315.29
2019-03-08T21:39:06.844Z,100312.50
2019-03-08T21:41:35.904Z,100308.56
2019-03-08T21:44:04.027Z,100312.99
2019-03-08T21:46:32.167Z,100312.65
2019-03-08T21:49:00.901Z,100306.77
2019-03-08T21:51:29.361Z,100295.62
2019-03-08T21:53:57.473Z,100297.92
2019-03-08T21:56:25.588Z,100300.38
2019-03-08T21:58:53.663Z,100303.64
2019-03-08T22:01:22.375Z,100301.02
2019-03-08T22:03:56.473Z,100303.00
2019-03-08T22:06:24.827Z,100300.38
2019-03-08T22:09:12.524Z,100307.10
2019-03-08T22:11:43.129Z,100301.86
2019-03-08T22:14:11.202Z,100299.88
2019-03-08T22:16:39.331Z,100300.37
2019-03-08T22:19:07.376Z,100300.22
2019-03-08T22:21:35.777Z,100294.97
2019-03-08T22:24:13.105Z,100299.54
2019-03-08T22:26:34.640Z,100297.41
2019-03-08T22:29:02.856Z,100294.47
2019-03-08T22:31:30.924Z,100284.97
2019-03-08T22:33:58.999Z,100284.97
2019-03-08T22:36:27.109Z,100280.55
2019-03-08T22:38:55.655Z,100274.48
2019-03-08T22:41:24.199Z,100275.97
2019-03-08T22:43:52.323Z,100275.15
2019-03-08T22:46:20.393Z,100273.16
2019-03-08T22:48:48.417Z,100276.14
2019-03-08T22:51:16.462Z,100278.77
2019-03-08T22:53:46.856Z,100278.27
2019-03-08T22:56:14.915Z,100279.08
2019-03-08T22:58:43.034Z,100278.09
2019-03-08T23:01:14.680Z,100274.16
2019-03-08T23:03:44.667Z,100275.47
2019-03-08T23:06:14.252Z,100274.98
2019-03-08T23:08:42.436Z,100265.66
2019-03-08T23:11:10.505Z,100263.03
2019-03-08T23:13:38.758Z,100260.05
2019-03-08T23:16:06.995Z,100255.98
2019-03-08T23:18:35.349Z,100245.31
2019-03-08T23:21:03.515Z,100238.61
2019-03-08T23:23:31.551Z,100240.09
2019-03-08T23:25:59.729Z,100238.46
2019-03-08T23:28:39.978Z,100240.59
2019-03-08T23:31:20.055Z,100243.04
2019-03-08T23:33:48.652Z,100244.84
2019-03-08T23:36:16.714Z,100245.02
2019-03-08T23:38:44.774Z,100247.28
2019-03-08T23:41:12.838Z,100244.52
2019-03-08T23:43:41.126Z,100241.41
2019-03-08T23:46:10.281Z,100244.03
2019-03-08T23:48:38.360Z,100249.91
2019-03-08T23:51:07.625Z,100256.45
2019-03-08T23:53:37.470Z,100256.96
2019-03-08T23:56:05.815Z,100253.84
2019-03-08T23:58:34.208Z,100264.83
